sensor_id;sensor_type;location;lat;lon;timestamp;P1;durP1;ratioP1;P2;durP2;ratioP2
17917;SDS011;9084;50.956;3.106;2023-04-27T00:01:44;5.93;;;5.35;;
17917;SDS011;9084;50.956;3.106;2023-04-27T00:04:10;6.47;;;5.38;;
17917;SDS011;9084;50.956;3.106;2023-04-27T00:06:38;7.68;;;6.25;;
17917;SDS011;9084;50.956;3.106;2023-04-27T00:09:04;5.70;;;5.00;;
17917;SDS011;9084;50.956;3.106;2023-04-27T00:11:29;9.00;;;5.95;;
17917;SDS011;9084;50.956;3.106;2023-04-27T00:13:55;7.47;;;5.40;;
17917;SDS011;9084;50.956;3.106;2023-04-27T00:16:21;9.20;;;5.85;;
17917;SDS011;9084;50.956;3.106;2023-04-27T00:18:46;6.30;;;5.47;;
17917;SDS011;9084;50.956;3.106;2023-04-27T00:21:12;6.55;;;5.63;;
17917;SDS011;9084;50.956;3.106;2023-04-27T00:23:38;6.53;;;5.85;;
17917;SDS011;9084;50.956;3.106;2023-04-27T00:26:04;6.80;;;5.90;;
17917;SDS011;9084;50.956;3.106;2023-04-27T00:28:32;8.43;;;6.32;;
17917;SDS011;9084;50.956;3.106;2023-04-27T00:30:57;9.13;;;5.53;;
17917;SDS011;9084;50.956;3.106;2023-04-27T00:33:23;7.38;;;5.88;;
17917;SDS011;9084;50.956;3.106;2023-04-27T00:35:49;8.60;;;6.80;;
17917;SDS011;9084;50.956;3.106;2023-04-27T00:38:15;6.72;;;6.13;;
17917;SDS011;9084;50.956;3.106;2023-04-27T00:40:40;7.72;;;6.38;;
17917;SDS011;9084;50.956;3.106;2023-04-27T00:43:06;7.95;;;6.18;;
17917;SDS011;9084;50.956;3.106;2023-04-27T00:45:34;8.07;;;5.78;;
17917;SDS011;9084;50.956;3.106;2023-04-27T00:48:06;8.15;;;6.13;;
17917;SDS011;9084;50.956;3.106;2023-04-27T00:50:32;8.05;;;6.75;;
17917;SDS011;9084;50.956;3.106;2023-04-27T00:53:01;9.57;;;6.22;;
17917;SDS011;9084;50.956;3.106;2023-04-27T00:55:28;8.77;;;7.30;;
17917;SDS011;9084;50.956;3.106;2023-04-27T00:57:56;7.20;;;6.50;;
17917;SDS011;9084;50.956;3.106;2023-04-27T01:00:22;9.73;;;7.15;;
17917;SDS011;9084;50.956;3.106;2023-04-27T01:02:48;6.40;;;5.80;;
17917;SDS011;9084;50.956;3.106;2023-04-27T01:05:14;6.65;;;6.05;;
17917;SDS011;9084;50.956;3.106;2023-04-27T01:07:43;8.45;;;6.72;;
17917;SDS011;9084;50.956;3.106;2023-04-27T01:10:08;7.85;;;6.13;;
17917;SDS011;9084;50.956;3.106;2023-04-27T01:12:36;7.43;;;6.60;;
17917;SDS011;9084;50.956;3.106;2023-04-27T01:15:02;9.45;;;7.28;;
17917;SDS011;9084;50.956;3.106;2023-04-27T01:17:30;9.23;;;6.88;;
17917;SDS011;9084;50.956;3.106;2023-04-27T01:19:55;12.65;;;6.95;;
17917;SDS011;9084;50.956;3.106;2023-04-27T01:22:26;8.07;;;6.80;;
17917;SDS011;9084;50.956;3.106;2023-04-27T01:24:52;7.15;;;6.00;;
17917;SDS011;9084;50.956;3.106;2023-04-27T01:27:18;7.70;;;6.63;;
17917;SDS011;9084;50.956;3.106;2023-04-27T01:29:43;8.70;;;6.60;;
17917;SDS011;9084;50.956;3.106;2023-04-27T01:32:09;8.38;;;6.30;;
17917;SDS011;9084;50.956;3.106;2023-04-27T01:34:36;8.37;;;6.83;;
17917;SDS011;9084;50.956;3.106;2023-04-27T01:37:04;7.97;;;7.18;;
17917;SDS011;9084;50.956;3.106;2023-04-27T01:39:32;6.80;;;6.10;;
17917;SDS011;9084;50.956;3.106;2023-04-27T01:41:58;7.88;;;6.93;;
17917;SDS011;9084;50.956;3.106;2023-04-27T01:44:23;11.53;;;7.17;;
17917;SDS011;9084;50.956;3.106;2023-04-27T01:46:49;10.13;;;7.45;;
17917;SDS011;9084;50.956;3.106;2023-04-27T01:49:15;11.07;;;7.63;;
17917;SDS011;9084;50.956;3.106;2023-04-27T01:51:43;8.37;;;6.77;;
17917;SDS011;9084;50.956;3.106;2023-04-27T01:54:08;9.30;;;7.53;;
17917;SDS011;9084;50.956;3.106;2023-04-27T01:56:36;8.60;;;7.10;;
17917;SDS011;9084;50.956;3.106;2023-04-27T01:59:04;8.83;;;7.27;;
17917;SDS011;9084;50.956;3.106;2023-04-27T02:01:34;9.47;;;7.40;;
17917;SDS011;9084;50.956;3.106;2023-04-27T02:04:00;7.63;;;6.93;;
17917;SDS011;9084;50.956;3.106;2023-04-27T02:06:26;8.43;;;7.53;;
17917;SDS011;9084;50.956;3.106;2023-04-27T02:08:54;8.50;;;6.27;;
17917;SDS011;9084;50.956;3.106;2023-04-27T02:11:20;6.87;;;6.17;;
17917;SDS011;9084;50.956;3.106;2023-04-27T02:13:46;9.00;;;6.90;;
17917;SDS011;9084;50.956;3.106;2023-04-27T02:16:12;9.13;;;8.23;;
17917;SDS011;9084;50.956;3.106;2023-04-27T02:18:38;9.77;;;7.57;;
17917;SDS011;9084;50.956;3.106;2023-04-27T02:21:08;8.83;;;7.93;;
17917;SDS011;9084;50.956;3.106;2023-04-27T02:23:34;8.97;;;7.90;;
17917;SDS011;9084;50.956;3.106;2023-04-27T02:26:00;7.57;;;6.77;;
17917;SDS011;9084;50.956;3.106;2023-04-27T02:28:26;8.80;;;6.87;;
17917;SDS011;9084;50.956;3.106;2023-04-27T02:30:54;9.83;;;8.60;;
17917;SDS011;9084;50.956;3.106;2023-04-27T02:33:20;9.53;;;8.53;;
17917;SDS011;9084;50.956;3.106;2023-04-27T02:35:46;10.07;;;7.63;;
17917;SDS011;9084;50.956;3.106;2023-04-27T02:38:11;12.63;;;8.33;;
17917;SDS011;9084;50.956;3.106;2023-04-27T02:40:39;10.93;;;9.20;;
17917;SDS011;9084;50.956;3.106;2023-04-27T02:43:07;10.03;;;9.07;;
17917;SDS011;9084;50.956;3.106;2023-04-27T02:45:35;10.67;;;9.67;;
17917;SDS011;9084;50.956;3.106;2023-04-27T02:48:02;12.50;;;9.27;;
17917;SDS011;9084;50.956;3.106;2023-04-27T02:50:28;13.33;;;9.90;;
17917;SDS011;9084;50.956;3.106;2023-04-27T02:52:53;10.03;;;8.97;;
17917;SDS011;9084;50.956;3.106;2023-04-27T02:55:19;10.97;;;9.50;;
17917;SDS011;9084;50.956;3.106;2023-04-27T02:57:45;11.47;;;9.03;;
17917;SDS011;9084;50.956;3.106;2023-04-27T03:00:13;10.43;;;9.43;;
17917;SDS011;9084;50.956;3.106;2023-04-27T03:02:39;10.27;;;9.23;;
17917;SDS011;9084;50.956;3.106;2023-04-27T03:05:04;9.20;;;8.17;;
17917;SDS011;9084;50.956;3.106;2023-04-27T03:07:31;10.00;;;7.10;;
17917;SDS011;9084;50.956;3.106;2023-04-27T03:09:59;7.80;;;6.93;;
17917;SDS011;9084;50.956;3.106;2023-04-27T03:12:27;9.50;;;8.27;;
17917;SDS011;9084;50.956;3.106;2023-04-27T03:14:55;9.80;;;8.13;;
17917;SDS011;9084;50.956;3.106;2023-04-27T03:17:21;9.83;;;8.00;;
17917;SDS011;9084;50.956;3.106;2023-04-27T03:19:47;9.57;;;8.63;;
17917;SDS011;9084;50.956;3.106;2023-04-27T03:22:15;8.97;;;7.77;;
17917;SDS011;9084;50.956;3.106;2023-04-27T03:24:41;8.83;;;7.93;;
17917;SDS011;9084;50.956;3.106;2023-04-27T03:27:09;10.33;;;8.93;;
17917;SDS011;9084;50.956;3.106;2023-04-27T03:29:37;9.90;;;8.67;;
17917;SDS011;9084;50.956;3.106;2023-04-27T03:32:03;9.10;;;8.20;;
17917;SDS011;9084;50.956;3.106;2023-04-27T03:34:29;10.23;;;8.07;;
17917;SDS011;9084;50.956;3.106;2023-04-27T03:36:55;9.37;;;8.57;;
17917;SDS011;9084;50.956;3.106;2023-04-27T03:39:23;9.00;;;8.10;;
17917;SDS011;9084;50.956;3.106;2023-04-27T03:41:48;15.13;;;9.03;;
17917;SDS011;9084;50.956;3.106;2023-04-27T03:44:14;9.43;;;8.43;;
17917;SDS011;9084;50.956;3.106;2023-04-27T03:46:40;8.60;;;7.67;;
17917;SDS011;9084;50.956;3.106;2023-04-27T03:49:05;9.67;;;8.43;;
17917;SDS011;9084;50.956;3.106;2023-04-27T03:51:31;9.00;;;8.10;;
17917;SDS011;9084;50.956;3.106;2023-04-27T03:53:57;9.57;;;8.00;;
17917;SDS011;9084;50.956;3.106;2023-04-27T03:56:23;9.80;;;8.77;;
17917;SDS011;9084;50.956;3.106;2023-04-27T03:58:49;9.10;;;8.13;;
17917;SDS011;9084;50.956;3.106;2023-04-27T04:01:15;9.40;;;8.40;;
17917;SDS011;9084;50.956;3.106;2023-04-27T04:03:43;9.13;;;8.20;;
17917;SDS011;9084;50.956;3.106;2023-04-27T04:06:09;10.83;;;8.67;;
17917;SDS011;9084;50.956;3.106;2023-04-27T04:08:35;11.10;;;8.63;;
17917;SDS011;9084;50.956;3.106;2023-04-27T04:11:01;10.20;;;8.77;;
17917;SDS011;9084;50.956;3.106;2023-04-27T04:13:27;8.77;;;7.97;;
17917;SDS011;9084;50.956;3.106;2023-04-27T04:15:59;9.33;;;8.30;;
17917;SDS011;9084;50.956;3.106;2023-04-27T04:18:29;12.37;;;9.30;;
17917;SDS011;9084;50.956;3.106;2023-04-27T04:20:57;9.97;;;8.33;;
17917;SDS011;9084;50.956;3.106;2023-04-27T04:23:25;11.07;;;9.47;;
17917;SDS011;9084;50.956;3.106;2023-04-27T04:25:53;10.17;;;8.03;;
17917;SDS011;9084;50.956;3.106;2023-04-27T04:28:23;11.00;;;9.07;;
17917;SDS011;9084;50.956;3.106;2023-04-27T04:30:48;10.83;;;9.67;;
17917;SDS011;9084;50.956;3.106;2023-04-27T04:33:15;13.50;;;9.40;;
17917;SDS011;9084;50.956;3.106;2023-04-27T04:35:41;10.03;;;8.13;;
17917;SDS011;9084;50.956;3.106;2023-04-27T04:38:09;12.47;;;10.07;;
17917;SDS011;9084;50.956;3.106;2023-04-27T04:40:37;10.50;;;9.50;;
17917;SDS011;9084;50.956;3.106;2023-04-27T04:43:05;11.93;;;9.63;;
17917;SDS011;9084;50.956;3.106;2023-04-27T04:45:31;10.43;;;9.37;;
17917;SDS011;9084;50.956;3.106;2023-04-27T04:47:56;9.87;;;8.87;;
17917;SDS011;9084;50.956;3.106;2023-04-27T04:50:25;12.23;;;9.40;;
17917;SDS011;9084;50.956;3.106;2023-04-27T04:52:50;13.40;;;9.73;;
17917;SDS011;9084;50.956;3.106;2023-04-27T04:55:16;10.60;;;9.47;;
17917;SDS011;9084;50.956;3.106;2023-04-27T04:57:42;10.47;;;9.33;;
17917;SDS011;9084;50.956;3.106;2023-04-27T05:00:08;11.63;;;9.70;;
17917;SDS011;9084;50.956;3.106;2023-04-27T05:02:38;9.63;;;8.67;;
17917;SDS011;9084;50.956;3.106;2023-04-27T05:05:04;9.87;;;8.90;;
17917;SDS011;9084;50.956;3.106;2023-04-27T05:07:30;11.43;;;9.33;;
17917;SDS011;9084;50.956;3.106;2023-04-27T05:09:55;10.30;;;8.73;;
17917;SDS011;9084;50.956;3.106;2023-04-27T05:12:21;11.27;;;9.07;;
17917;SDS011;9084;50.956;3.106;2023-04-27T05:14:49;10.43;;;8.90;;
17917;SDS011;9084;50.956;3.106;2023-04-27T05:17:15;11.90;;;9.17;;
17917;SDS011;9084;50.956;3.106;2023-04-27T05:19:43;11.27;;;9.13;;
17917;SDS011;9084;50.956;3.106;2023-04-27T05:22:09;9.83;;;8.90;;
17917;SDS011;9084;50.956;3.106;2023-04-27T05:24:37;9.70;;;8.67;;
17917;SDS011;9084;50.956;3.106;2023-04-27T05:27:02;9.97;;;8.97;;
17917;SDS011;9084;50.956;3.106;2023-04-27T05:29:28;9.03;;;7.40;;
17917;SDS011;9084;50.956;3.106;2023-04-27T05:31:56;8.60;;;7.57;;
17917;SDS011;9084;50.956;3.106;2023-04-27T05:34:22;10.17;;;8.90;;
17917;SDS011;9084;50.956;3.106;2023-04-27T05:36:47;9.50;;;8.27;;
17917;SDS011;9084;50.956;3.106;2023-04-27T05:39:15;9.53;;;8.50;;
17917;SDS011;9084;50.956;3.106;2023-04-27T05:41:41;9.13;;;8.20;;
17917;SDS011;9084;50.956;3.106;2023-04-27T05:44:09;10.33;;;9.23;;
17917;SDS011;9084;50.956;3.106;2023-04-27T05:46:39;10.17;;;8.77;;
17917;SDS011;9084;50.956;3.106;2023-04-27T05:49:07;13.17;;;9.10;;
17917;SDS011;9084;50.956;3.106;2023-04-27T05:51:35;9.90;;;8.83;;
17917;SDS011;9084;50.956;3.106;2023-04-27T05:54:02;9.73;;;8.40;;
17917;SDS011;9084;50.956;3.106;2023-04-27T05:56:28;11.27;;;8.07;;
17917;SDS011;9084;50.956;3.106;2023-04-27T05:58:58;9.33;;;8.33;;
17917;SDS011;9084;50.956;3.106;2023-04-27T06:01:26;11.97;;;8.93;;
17917;SDS011;9084;50.956;3.106;2023-04-27T06:03:54;10.00;;;9.00;;
17917;SDS011;9084;50.956;3.106;2023-04-27T06:06:19;11.90;;;9.23;;
17917;SDS011;9084;50.956;3.106;2023-04-27T06:08:45;9.33;;;8.37;;
17917;SDS011;9084;50.956;3.106;2023-04-27T06:11:11;9.87;;;8.87;;
17917;SDS011;9084;50.956;3.106;2023-04-27T06:13:36;10.13;;;8.80;;
17917;SDS011;9084;50.956;3.106;2023-04-27T06:16:02;9.50;;;8.20;;
17917;SDS011;9084;50.956;3.106;2023-04-27T06:18:30;11.47;;;9.23;;
17917;SDS011;9084;50.956;3.106;2023-04-27T06:20:59;10.93;;;9.10;;
17917;SDS011;9084;50.956;3.106;2023-04-27T06:23:25;12.70;;;10.60;;
17917;SDS011;9084;50.956;3.106;2023-04-27T06:25:53;11.17;;;9.37;;
17917;SDS011;9084;50.956;3.106;2023-04-27T06:28:19;11.10;;;9.03;;
17917;SDS011;9084;50.956;3.106;2023-04-27T06:30:45;10.20;;;9.10;;
17917;SDS011;9084;50.956;3.106;2023-04-27T06:33:15;11.33;;;8.57;;
17917;SDS011;9084;50.956;3.106;2023-04-27T06:35:43;13.00;;;9.00;;
17917;SDS011;9084;50.956;3.106;2023-04-27T06:38:09;11.90;;;9.13;;
17917;SDS011;9084;50.956;3.106;2023-04-27T06:40:34;13.57;;;10.27;;
17917;SDS011;9084;50.956;3.106;2023-04-27T06:43:01;11.13;;;9.90;;
17917;SDS011;9084;50.956;3.106;2023-04-27T06:45:27;11.05;;;8.40;;
17917;SDS011;9084;50.956;3.106;2023-04-27T06:47:52;11.80;;;9.43;;
17917;SDS011;9084;50.956;3.106;2023-04-27T06:50:23;12.27;;;8.80;;
17917;SDS011;9084;50.956;3.106;2023-04-27T06:52:48;10.13;;;9.07;;
17917;SDS011;9084;50.956;3.106;2023-04-27T06:55:16;10.57;;;8.65;;
17917;SDS011;9084;50.956;3.106;2023-04-27T06:57:44;12.60;;;8.48;;
17917;SDS011;9084;50.956;3.106;2023-04-27T07:00:10;12.60;;;9.40;;
17917;SDS011;9084;50.956;3.106;2023-04-27T07:02:37;13.55;;;9.00;;
17917;SDS011;9084;50.956;3.106;2023-04-27T07:05:03;11.82;;;9.45;;
17917;SDS011;9084;50.956;3.106;2023-04-27T07:07:31;13.00;;;8.75;;
17917;SDS011;9084;50.956;3.106;2023-04-27T07:09:59;15.80;;;9.30;;
17917;SDS011;9084;50.956;3.106;2023-04-27T07:12:25;12.05;;;8.45;;
17917;SDS011;9084;50.956;3.106;2023-04-27T07:14:50;16.17;;;8.75;;
17917;SDS011;9084;50.956;3.106;2023-04-27T07:17:16;12.60;;;8.13;;
17917;SDS011;9084;50.956;3.106;2023-04-27T07:19:42;12.30;;;9.27;;
17917;SDS011;9084;50.956;3.106;2023-04-27T07:22:07;11.38;;;9.20;;
17917;SDS011;9084;50.956;3.106;2023-04-27T07:24:34;13.63;;;8.77;;
17917;SDS011;9084;50.956;3.106;2023-04-27T07:26:59;11.95;;;8.77;;
17917;SDS011;9084;50.956;3.106;2023-04-27T07:29:28;15.27;;;9.75;;
17917;SDS011;9084;50.956;3.106;2023-04-27T07:31:56;11.98;;;7.90;;
17917;SDS011;9084;50.956;3.106;2023-04-27T07:34:24;11.23;;;8.30;;
17917;SDS011;9084;50.956;3.106;2023-04-27T07:36:53;11.43;;;9.23;;
17917;SDS011;9084;50.956;3.106;2023-04-27T07:39:19;9.98;;;8.50;;
17917;SDS011;9084;50.956;3.106;2023-04-27T07:41:44;10.88;;;8.40;;
17917;SDS011;9084;50.956;3.106;2023-04-27T07:44:12;13.02;;;9.85;;
17917;SDS011;9084;50.956;3.106;2023-04-27T07:46:40;11.88;;;9.15;;
17917;SDS011;9084;50.956;3.106;2023-04-27T07:49:08;11.35;;;8.20;;
17917;SDS011;9084;50.956;3.106;2023-04-27T07:51:36;11.55;;;9.55;;
17917;SDS011;9084;50.956;3.106;2023-04-27T07:54:02;14.95;;;9.70;;
17917;SDS011;9084;50.956;3.106;2023-04-27T07:56:30;11.55;;;9.45;;
17917;SDS011;9084;50.956;3.106;2023-04-27T07:58:57;13.20;;;9.70;;
17917;SDS011;9084;50.956;3.106;2023-04-27T08:01:23;11.80;;;8.82;;
17917;SDS011;9084;50.956;3.106;2023-04-27T08:03:51;13.23;;;9.63;;
17917;SDS011;9084;50.956;3.106;2023-04-27T08:06:19;12.88;;;9.00;;
17917;SDS011;9084;50.956;3.106;2023-04-27T08:08:46;11.57;;;9.43;;
17917;SDS011;9084;50.956;3.106;2023-04-27T08:11:12;13.35;;;9.18;;
17917;SDS011;9084;50.956;3.106;2023-04-27T08:13:40;17.13;;;9.60;;
17917;SDS011;9084;50.956;3.106;2023-04-27T08:16:06;13.48;;;9.20;;
17917;SDS011;9084;50.956;3.106;2023-04-27T08:18:34;16.90;;;10.50;;
17917;SDS011;9084;50.956;3.106;2023-04-27T08:21:02;11.98;;;9.77;;
17917;SDS011;9084;50.956;3.106;2023-04-27T08:23:28;13.23;;;9.48;;
17917;SDS011;9084;50.956;3.106;2023-04-27T08:25:57;16.63;;;10.57;;
17917;SDS011;9084;50.956;3.106;2023-04-27T08:28:22;16.85;;;9.95;;
17917;SDS011;9084;50.956;3.106;2023-04-27T08:30:49;12.15;;;9.90;;
17917;SDS011;9084;50.956;3.106;2023-04-27T08:33:14;15.27;;;9.27;;
17917;SDS011;9084;50.956;3.106;2023-04-27T08:35:42;11.75;;;9.13;;
17917;SDS011;9084;50.956;3.106;2023-04-27T08:38:08;13.60;;;9.40;;
17917;SDS011;9084;50.956;3.106;2023-04-27T08:40:33;9.52;;;8.45;;
17917;SDS011;9084;50.956;3.106;2023-04-27T08:43:01;12.32;;;9.35;;
17917;SDS011;9084;50.956;3.106;2023-04-27T08:45:27;10.73;;;8.60;;
17917;SDS011;9084;50.956;3.106;2023-04-27T08:47:53;14.82;;;9.52;;
17917;SDS011;9084;50.956;3.106;2023-04-27T08:50:18;13.48;;;9.23;;
17917;SDS011;9084;50.956;3.106;2023-04-27T08:52:48;10.32;;;9.00;;
17917;SDS011;9084;50.956;3.106;2023-04-27T08:55:14;11.32;;;8.82;;
17917;SDS011;9084;50.956;3.106;2023-04-27T08:57:40;9.60;;;8.60;;
17917;SDS011;9084;50.956;3.106;2023-04-27T09:00:06;14.70;;;10.00;;
17917;SDS011;9084;50.956;3.106;2023-04-27T09:02:45;12.40;;;9.02;;
17917;SDS011;9084;50.956;3.106;2023-04-27T09:05:14;10.35;;;9.05;;
17917;SDS011;9084;50.956;3.106;2023-04-27T09:08:04;12.35;;;9.15;;
17917;SDS011;9084;50.956;3.106;2023-04-27T09:10:44;12.05;;;8.45;;
17917;SDS011;9084;50.956;3.106;2023-04-27T09:13:16;12.43;;;9.18;;
17917;SDS011;9084;50.956;3.106;2023-04-27T09:15:52;12.48;;;9.25;;
17917;SDS011;9084;50.956;3.106;2023-04-27T09:18:22;10.90;;;8.43;;
17917;SDS011;9084;50.956;3.106;2023-04-27T09:20:48;9.45;;;8.05;;
17917;SDS011;9084;50.956;3.106;2023-04-27T09:23:25;11.55;;;8.80;;
17917;SDS011;9084;50.956;3.106;2023-04-27T09:25:55;10.57;;;9.48;;
17917;SDS011;9084;50.956;3.106;2023-04-27T09:28:28;8.82;;;7.80;;
17917;SDS011;9084;50.956;3.106;2023-04-27T09:30:58;10.50;;;8.27;;
17917;SDS011;9084;50.956;3.106;2023-04-27T09:33:29;11.45;;;8.43;;
17917;SDS011;9084;50.956;3.106;2023-04-27T09:36:01;9.73;;;8.82;;
17917;SDS011;9084;50.956;3.106;2023-04-27T09:38:29;11.30;;;8.05;;
17917;SDS011;9084;50.956;3.106;2023-04-27T09:40:55;11.75;;;8.73;;
17917;SDS011;9084;50.956;3.106;2023-04-27T09:43:22;8.90;;;8.00;;
17917;SDS011;9084;50.956;3.106;2023-04-27T09:45:49;10.10;;;7.85;;
17917;SDS011;9084;50.956;3.106;2023-04-27T09:48:15;9.63;;;7.80;;
17917;SDS011;9084;50.956;3.106;2023-04-27T09:50:42;13.95;;;8.35;;
17917;SDS011;9084;50.956;3.106;2023-04-27T09:53:16;12.32;;;8.40;;
17917;SDS011;9084;50.956;3.106;2023-04-27T09:59:44;9.75;;;8.07;;
17917;SDS011;9084;50.956;3.106;2023-04-27T10:02:04;9.60;;;7.88;;
17917;SDS011;9084;50.956;3.106;2023-04-27T10:09:26;10.55;;;8.25;;
17917;SDS011;9084;50.956;3.106;2023-04-27T10:12:11;11.32;;;7.90;;
17917;SDS011;9084;50.956;3.106;2023-04-27T10:17:15;10.30;;;8.65;;
17917;SDS011;9084;50.956;3.106;2023-04-27T10:19:51;11.57;;;8.15;;
17917;SDS011;9084;50.956;3.106;2023-04-27T10:22:19;12.18;;;8.05;;
17917;SDS011;9084;50.956;3.106;2023-04-27T10:24:47;9.80;;;7.45;;
17917;SDS011;9084;50.956;3.106;2023-04-27T10:27:16;13.45;;;7.90;;
17917;SDS011;9084;50.956;3.106;2023-04-27T10:29:48;8.90;;;7.38;;
17917;SDS011;9084;50.956;3.106;2023-04-27T10:32:18;9.93;;;8.00;;
17917;SDS011;9084;50.956;3.106;2023-04-27T10:34:50;9.30;;;7.13;;
17917;SDS011;9084;50.956;3.106;2023-04-27T10:37:37;9.35;;;7.13;;
17917;SDS011;9084;50.956;3.106;2023-04-27T10:40:07;9.93;;;8.10;;
17917;SDS011;9084;50.956;3.106;2023-04-27T10:42:42;9.18;;;7.93;;
17917;SDS011;9084;50.956;3.106;2023-04-27T10:45:10;11.98;;;7.53;;
17917;SDS011;9084;50.956;3.106;2023-04-27T10:47:42;8.55;;;7.35;;
17917;SDS011;9084;50.956;3.106;2023-04-27T10:50:11;13.20;;;7.07;;
17917;SDS011;9084;50.956;3.106;2023-04-27T10:52:41;9.13;;;8.07;;
17917;SDS011;9084;50.956;3.106;2023-04-27T10:55:20;9.18;;;7.40;;
17917;SDS011;9084;50.956;3.106;2023-04-27T11:00:20;9.98;;;6.68;;
17917;SDS011;9084;50.956;3.106;2023-04-27T11:02:47;7.57;;;6.78;;
17917;SDS011;9084;50.956;3.106;2023-04-27T11:05:23;6.78;;;6.15;;
17917;SDS011;9084;50.956;3.106;2023-04-27T11:08:03;10.35;;;6.78;;
17917;SDS011;9084;50.956;3.106;2023-04-27T11:10:29;8.27;;;6.85;;
17917;SDS011;9084;50.956;3.106;2023-04-27T11:13:05;7.05;;;6.45;;
17917;SDS011;9084;50.956;3.106;2023-04-27T11:15:44;7.32;;;6.50;;
17917;SDS011;9084;50.956;3.106;2023-04-27T11:18:10;9.38;;;6.18;;
17917;SDS011;9084;50.956;3.106;2023-04-27T11:20:36;6.93;;;5.45;;
17917;SDS011;9084;50.956;3.106;2023-04-27T11:23:04;9.32;;;6.30;;
17917;SDS011;9084;50.956;3.106;2023-04-27T11:25:30;7.05;;;6.22;;
17917;SDS011;9084;50.956;3.106;2023-04-27T11:27:56;6.60;;;5.97;;
17917;SDS011;9084;50.956;3.106;2023-04-27T11:30:22;7.72;;;6.80;;
17917;SDS011;9084;50.956;3.106;2023-04-27T11:32:51;7.40;;;6.70;;
17917;SDS011;9084;50.956;3.106;2023-04-27T11:35:17;6.18;;;5.68;;
17917;SDS011;9084;50.956;3.106;2023-04-27T11:37:56;8.30;;;5.65;;
17917;SDS011;9084;50.956;3.106;2023-04-27T11:40:23;6.07;;;5.50;;
17917;SDS011;9084;50.956;3.106;2023-04-27T11:42:55;6.38;;;5.70;;
17917;SDS011;9084;50.956;3.106;2023-04-27T11:45:27;6.50;;;5.75;;
17917;SDS011;9084;50.956;3.106;2023-04-27T11:47:54;8.13;;;6.53;;
17917;SDS011;9084;50.956;3.106;2023-04-27T11:50:24;6.85;;;6.25;;
17917;SDS011;9084;50.956;3.106;2023-04-27T11:52:52;7.40;;;6.07;;
17917;SDS011;9084;50.956;3.106;2023-04-27T11:55:26;6.97;;;5.55;;
17917;SDS011;9084;50.956;3.106;2023-04-27T11:57:56;6.10;;;5.53;;
17917;SDS011;9084;50.956;3.106;2023-04-27T12:00:23;8.02;;;5.85;;
17917;SDS011;9084;50.956;3.106;2023-04-27T12:02:49;7.38;;;5.57;;
17917;SDS011;9084;50.956;3.106;2023-04-27T12:05:15;7.80;;;6.13;;
17917;SDS011;9084;50.956;3.106;2023-04-27T12:07:41;7.75;;;6.20;;
17917;SDS011;9084;50.956;3.106;2023-04-27T12:10:07;7.68;;;6.22;;
17917;SDS011;9084;50.956;3.106;2023-04-27T12:12:35;7.00;;;5.95;;
17917;SDS011;9084;50.956;3.106;2023-04-27T12:15:03;7.43;;;6.40;;
17917;SDS011;9084;50.956;3.106;2023-04-27T12:17:30;6.55;;;5.85;;
17917;SDS011;9084;50.956;3.106;2023-04-27T12:19:56;6.72;;;5.95;;
17917;SDS011;9084;50.956;3.106;2023-04-27T12:22:22;9.32;;;6.25;;
17917;SDS011;9084;50.956;3.106;2023-04-27T12:24:48;8.23;;;5.80;;
17917;SDS011;9084;50.956;3.106;2023-04-27T12:27:14;8.55;;;5.80;;
17917;SDS011;9084;50.956;3.106;2023-04-27T12:29:43;7.35;;;6.13;;
17917;SDS011;9084;50.956;3.106;2023-04-27T12:32:11;6.82;;;6.13;;
17917;SDS011;9084;50.956;3.106;2023-04-27T12:34:39;6.40;;;5.68;;
17917;SDS011;9084;50.956;3.106;2023-04-27T12:37:06;5.85;;;5.25;;
17917;SDS011;9084;50.956;3.106;2023-04-27T12:39:32;8.57;;;5.93;;
17917;SDS011;9084;50.956;3.106;2023-04-27T12:41:58;8.07;;;6.05;;
17917;SDS011;9084;50.956;3.106;2023-04-27T12:44:26;6.88;;;6.05;;
17917;SDS011;9084;50.956;3.106;2023-04-27T12:46:51;6.88;;;6.28;;
17917;SDS011;9084;50.956;3.106;2023-04-27T12:49:17;7.38;;;6.53;;
17917;SDS011;9084;50.956;3.106;2023-04-27T12:51:43;8.80;;;5.60;;
17917;SDS011;9084;50.956;3.106;2023-04-27T12:54:10;11.13;;;5.93;;
17917;SDS011;9084;50.956;3.106;2023-04-27T12:56:38;7.18;;;5.70;;
17917;SDS011;9084;50.956;3.106;2023-04-27T12:59:06;6.45;;;5.65;;
17917;SDS011;9084;50.956;3.106;2023-04-27T13:01:34;9.68;;;6.50;;
17917;SDS011;9084;50.956;3.106;2023-04-27T13:04:02;8.25;;;6.25;;
17917;SDS011;9084;50.956;3.106;2023-04-27T13:06:29;9.05;;;6.32;;
17917;SDS011;9084;50.956;3.106;2023-04-27T13:08:56;8.25;;;5.78;;
17917;SDS011;9084;50.956;3.106;2023-04-27T13:11:27;10.85;;;6.28;;
17917;SDS011;9084;50.956;3.106;2023-04-27T13:13:53;6.70;;;6.20;;
17917;SDS011;9084;50.956;3.106;2023-04-27T13:16:21;5.90;;;5.40;;
17917;SDS011;9084;50.956;3.106;2023-04-27T13:18:51;6.63;;;5.53;;
17917;SDS011;9084;50.956;3.106;2023-04-27T13:21:17;6.38;;;5.78;;
17917;SDS011;9084;50.956;3.106;2023-04-27T13:23:45;7.55;;;6.65;;
17917;SDS011;9084;50.956;3.106;2023-04-27T13:26:12;8.70;;;6.75;;
17917;SDS011;9084;50.956;3.106;2023-04-27T13:28:41;6.68;;;6.07;;
17917;SDS011;9084;50.956;3.106;2023-04-27T13:31:06;9.18;;;6.38;;
17917;SDS011;9084;50.956;3.106;2023-04-27T13:33:33;7.80;;;7.07;;
17917;SDS011;9084;50.956;3.106;2023-04-27T13:36:03;7.45;;;6.57;;
17917;SDS011;9084;50.956;3.106;2023-04-27T13:38:29;6.60;;;5.93;;
17917;SDS011;9084;50.956;3.106;2023-04-27T13:40:57;8.73;;;6.57;;
17917;SDS011;9084;50.956;3.106;2023-04-27T13:43:25;7.63;;;6.70;;
17917;SDS011;9084;50.956;3.106;2023-04-27T13:45:51;8.48;;;6.97;;
17917;SDS011;9084;50.956;3.106;2023-04-27T13:48:22;7.53;;;6.40;;
17917;SDS011;9084;50.956;3.106;2023-04-27T13:50:48;8.52;;;7.55;;
17917;SDS011;9084;50.956;3.106;2023-04-27T13:53:15;7.65;;;6.88;;
17917;SDS011;9084;50.956;3.106;2023-04-27T13:55:43;7.90;;;6.72;;
17917;SDS011;9084;50.956;3.106;2023-04-27T13:58:09;8.60;;;6.75;;
17917;SDS011;9084;50.956;3.106;2023-04-27T14:00:35;8.15;;;7.22;;
17917;SDS011;9084;50.956;3.106;2023-04-27T14:03:01;8.07;;;7.10;;
17917;SDS011;9084;50.956;3.106;2023-04-27T14:05:32;8.02;;;7.22;;
17917;SDS011;9084;50.956;3.106;2023-04-27T14:08:00;7.45;;;6.75;;
17917;SDS011;9084;50.956;3.106;2023-04-27T14:10:26;10.80;;;7.85;;
17917;SDS011;9084;50.956;3.106;2023-04-27T14:12:54;7.72;;;7.03;;
17917;SDS011;9084;50.956;3.106;2023-04-27T14:15:20;9.30;;;8.05;;
17917;SDS011;9084;50.956;3.106;2023-04-27T14:17:46;8.20;;;7.40;;
17917;SDS011;9084;50.956;3.106;2023-04-27T14:20:14;9.68;;;7.97;;
17917;SDS011;9084;50.956;3.106;2023-04-27T14:22:40;9.80;;;7.95;;
17917;SDS011;9084;50.956;3.106;2023-04-27T14:25:08;8.50;;;7.20;;
17917;SDS011;9084;50.956;3.106;2023-04-27T14:27:34;7.70;;;6.80;;
17917;SDS011;9084;50.956;3.106;2023-04-27T14:30:02;8.52;;;7.72;;
17917;SDS011;9084;50.956;3.106;2023-04-27T14:32:28;10.13;;;7.53;;
17917;SDS011;9084;50.956;3.106;2023-04-27T14:34:54;9.63;;;7.45;;
17917;SDS011;9084;50.956;3.106;2023-04-27T14:37:19;8.18;;;7.38;;
17917;SDS011;9084;50.956;3.106;2023-04-27T14:39:47;12.48;;;7.65;;
17917;SDS011;9084;50.956;3.106;2023-04-27T14:42:13;10.32;;;8.70;;
17917;SDS011;9084;50.956;3.106;2023-04-27T14:44:40;10.80;;;8.98;;
17917;SDS011;9084;50.956;3.106;2023-04-27T14:47:06;8.63;;;7.75;;
17917;SDS011;9084;50.956;3.106;2023-04-27T14:49:32;9.10;;;8.20;;
17917;SDS011;9084;50.956;3.106;2023-04-27T14:51:57;10.20;;;9.20;;
17917;SDS011;9084;50.956;3.106;2023-04-27T14:54:27;12.52;;;9.02;;
17917;SDS011;9084;50.956;3.106;2023-04-27T14:56:53;9.20;;;8.40;;
17917;SDS011;9084;50.956;3.106;2023-04-27T14:59:24;11.43;;;8.88;;
17917;SDS011;9084;50.956;3.106;2023-04-27T15:01:50;10.68;;;9.57;;
17917;SDS011;9084;50.956;3.106;2023-04-27T15:04:16;13.38;;;9.75;;
17917;SDS011;9084;50.956;3.106;2023-04-27T15:06:44;11.25;;;8.93;;
17917;SDS011;9084;50.956;3.106;2023-04-27T15:09:11;13.73;;;10.27;;
17917;SDS011;9084;50.956;3.106;2023-04-27T15:11:40;9.85;;;8.95;;